Time;durP1;ratioP1;P1;durP2;ratioP2;P2;SDS_P1;SDS_P2;PMS_P1;PMS_P2;Temp;Humidity;BMP_temperature;BMP_pressure;BME280_temperature;BME280_humidity;BME280_pressure;Samples;Min_cycle;Max_cycle;Signal;HPM_P1;HPM_P2
2023/01/29 00:01:46;;;;;;;5.80;4.90;;;-3.50;99.90;-3.10;94785.00;;;;7407783;19;20147;-77
2023/01/29 00:04:14;;;;;;;8.37;5.40;;;-3.50;99.90;-3.20;94733.00;;;;7409063;19;20131;-78
2023/01/29 00:06:48;;;;;;;6.23;4.50;;;-3.60;99.90;-3.20;94745.00;;;;7406487;19;20196;-77
2023/01/29 00:09:21;;;;;;;6.30;4.80;;;-3.60;99.90;-3.30;94722.00;;;;7405661;19;20213;-77
2023/01/29 00:11:55;;;;;;;6.43;4.83;;;-3.50;99.90;-3.50;94765.00;;;;7407232;19;20464;-77
2023/01/29 00:14:22;;;;;;;9.13;5.33;;;-3.50;91.80;-3.40;94759.00;;;;7406040;19;20643;-77
2023/01/29 00:16:56;;;;;;;8.43;6.10;;;-3.50;3.80;-3.30;94728.00;;;;7408366;19;20173;-77
2023/01/29 00:19:30;;;;;;;9.10;6.17;;;-3.60;1.00;-3.30;94773.00;;;;7408209;19;20587;-77
2023/01/29 00:22:04;;;;;;;11.50;6.83;;;-3.60;1.00;-3.30;94770.00;;;;7406638;19;20483;-78
2023/01/29 00:24:38;;;;;;;10.60;6.50;;;-3.60;1.00;-3.30;94758.00;;;;7406737;19;20137;-79
2023/01/29 00:27:05;;;;;;;8.93;5.83;;;-3.60;33.70;-3.30;94750.00;;;;7406507;19;20146;-78
2023/01/29 00:29:39;;;;;;;9.10;6.10;;;-3.60;67.80;-3.20;94757.00;;;;7406753;19;20142;-78
2023/01/29 00:32:13;;;;;;;7.93;5.40;;;-3.60;99.90;-3.30;94759.00;;;;7406780;19;20164;-77
2023/01/29 00:34:40;;;;;;;7.43;4.83;;;-3.60;98.80;-3.20;94771.00;;;;7407635;19;20133;-78
2023/01/29 00:37:14;;;;;;;9.70;5.97;;;-3.60;58.30;-3.30;94718.00;;;;7406021;19;20140;-77
2023/01/29 00:39:41;;;;;;;7.73;5.17;;;-3.60;16.70;-3.30;94735.00;;;;7407420;19;20656;-78
2023/01/29 00:44:59;;;;;;;8.70;5.67;;;-3.70;31.30;-3.30;94765.00;;;;7406191;19;20148;-77
2023/01/29 00:47:33;;;;;;;11.30;6.60;;;-3.70;85.40;-3.30;94712.00;;;;7405451;19;20480;-78
2023/01/29 00:50:10;;;;;;;8.40;5.93;;;-3.70;99.90;-3.30;94748.00;;;;7405300;19;20129;-78
2023/01/29 00:52:44;;;;;;;6.67;4.93;;;-3.70;90.90;-3.40;94735.00;;;;7405861;19;20144;-78
2023/01/29 00:55:18;;;;;;;8.10;5.73;;;-3.80;15.10;-3.40;94783.00;;;;7406801;19;20148;-78
2023/01/29 00:57:52;;;;;;;7.53;5.73;;;-3.80;16.80;-3.40;94708.00;;;;7406318;19;20156;-78
2023/01/29 01:00:26;;;;;;;8.67;6.07;;;-3.80;42.80;-3.30;94773.00;;;;7402111;19;20163;-77
2023/01/29 01:03:05;;;;;;;10.33;6.60;;;-3.80;57.20;-3.20;94764.00;;;;7404047;19;20176;-78
2023/01/29 01:05:39;;;;;;;9.27;6.97;;;-3.70;94.20;-3.30;94783.00;;;;7404278;19;20158;-78
2023/01/29 01:11:12;;;;;;;10.33;6.43;;;-3.70;99.90;-3.30;94745.00;;;;7404921;19;20475;-77
2023/01/29 01:13:39;;;;;;;10.63;6.67;;;-3.80;99.90;-3.30;94714.00;;;;7406692;19;20125;-77
2023/01/29 01:16:17;;;;;;;9.97;5.90;;;-3.70;99.90;-3.30;94723.00;;;;7405886;19;20156;-77
2023/01/29 01:18:51;;;;;;;10.40;6.87;;;-3.70;99.90;-3.40;94768.00;;;;7405261;19;20649;-77
2023/01/29 01:21:25;;;;;;;9.07;6.33;;;-3.70;99.90;-3.40;94770.00;;;;7406158;19;20137;-79
2023/01/29 01:23:52;;;;;;;9.40;6.33;;;-3.70;99.90;-3.40;94713.00;;;;7404631;19;20145;-78
2023/01/29 01:26:26;;;;;;;9.27;6.03;;;-3.70;99.90;-3.40;94765.00;;;;7405104;19;20235;-78
2023/01/29 01:28:53;;;;;;;9.13;5.30;;;-3.70;99.90;-3.40;94728.00;;;;7405164;19;20524;-78
2023/01/29 01:31:27;;;;;;;10.00;6.50;;;-3.80;99.90;-3.40;94733.00;;;;7406053;19;20156;-78
2023/01/29 01:34:00;;;;;;;8.50;6.10;;;-3.70;99.90;-3.40;94774.00;;;;7406825;19;20149;-78
2023/01/29 01:36:34;;;;;;;11.77;6.47;;;-3.70;99.90;-3.40;94766.00;;;;7410533;19;20141;-77
2023/01/29 01:39:07;;;;;;;8.90;6.03;;;-3.70;99.90;-3.50;94766.00;;;;7420588;19;20125;-76
2023/01/29 01:41:34;;;;;;;9.53;5.60;;;-3.70;99.90;-3.40;94726.00;;;;7424931;19;20129;-78
2023/01/29 01:44:53;;;;;;;8.67;5.50;;;-3.70;72.30;-3.40;94770.00;;;;7417372;19;20132;-78
2023/01/29 01:47:40;;;;;;;8.13;5.40;;;-3.70;37.90;-3.40;94774.00;;;;7412751;19;20133;-77
2023/01/29 01:50:42;;;;;;;9.53;6.37;;;-3.80;51.00;-3.40;94769.00;;;;7411722;19;20133;-77
2023/01/29 01:53:25;;;;;;;8.77;5.73;;;-3.70;82.90;-3.50;94765.00;;;;7408910;19;20117;-77
2023/01/29 01:56:05;;;;;;;8.97;5.53;;;-3.80;99.90;-3.50;94756.00;;;;7409081;19;20144;-77
2023/01/29 01:58:45;;;;;;;8.90;5.57;;;-3.80;99.90;-3.40;94768.00;;;;7406789;19;20139;-79
2023/01/29 02:01:33;;;;;;;9.70;5.33;;;-3.80;99.90;-3.40;94769.00;;;;7397374;19;20645;-74
2023/01/29 02:10:09;;;;;;;8.27;5.40;;;-3.80;99.90;-3.40;94755.00;;;;7398906;19;20511;-75
2023/01/29 02:12:44;;;;;;;7.07;5.60;;;-3.80;99.90;-3.50;94739.00;;;;7396626;19;20180;-75
2023/01/29 02:15:12;;;;;;;12.80;5.83;;;-3.80;99.90;-3.50;94756.00;;;;7400784;19;20200;-75
2023/01/29 02:17:47;;;;;;;6.87;4.90;;;-3.80;99.90;-3.50;94744.00;;;;7398474;19;20158;-75
2023/01/29 02:20:28;;;;;;;8.57;5.37;;;-3.80;99.90;-3.50;94766.00;;;;7399089;19;20156;-75
2023/01/29 02:23:46;;;;;;;8.77;5.90;;;-3.80;99.90;-3.60;94767.00;;;;7399754;19;20121;-74
2023/01/29 02:27:04;;;;;;;7.77;5.00;;;-3.80;80.20;-3.70;94768.00;;;;7398104;19;20131;-73
2023/01/29 02:30:05;;;;;;;6.23;4.33;;;-3.90;1.00;-3.70;94766.00;;;;7397605;19;20223;-75
2023/01/29 02:32:58;;;;;;;7.33;4.97;;;-3.90;1.00;-3.80;94712.00;;;;7400041;19;20585;-74
2023/01/29 02:35:43;;;;;;;7.10;5.00;;;-3.90;1.00;-3.90;94771.00;;;;7399896;19;20120;-74
2023/01/29 02:38:29;;;;;;;8.10;4.60;;;-3.90;1.00;-3.80;94766.00;;;;7397975;19;20148;-73
2023/01/29 02:41:40;;;;;;;6.60;4.77;;;-4.00;1.00;-3.80;94751.00;;;;7399934;19;20136;-73
2023/01/29 02:44:39;;;;;;;7.53;5.23;;;-4.00;1.00;-3.80;94759.00;;;;7399118;19;20188;-73
2023/01/29 02:47:20;;;;;;;7.13;5.50;;;-4.10;1.00;-3.80;94744.00;;;;7396401;19;20147;-72
2023/01/29 02:50:15;;;;;;;7.17;5.00;;;-4.10;1.00;-3.80;94737.00;;;;7399579;19;20157;-73
2023/01/29 02:53:04;;;;;;;7.60;5.30;;;-4.10;1.00;-3.70;94738.00;;;;7396615;19;20231;-73
2023/01/29 02:55:54;;;;;;;9.47;5.00;;;-4.00;1.00;-3.70;94750.00;;;;7397674;19;20155;-74
2023/01/29 02:58:38;;;;;;;7.03;4.80;;;-4.00;1.00;-3.70;94744.00;;;;7398574;19;20488;-73
2023/01/29 03:01:48;;;;;;;8.20;5.77;;;-4.00;1.00;-3.70;94762.00;;;;7397250;19;20175;-73
2023/01/29 03:04:24;;;;;;;8.33;5.70;;;-4.00;1.00;-3.70;94751.00;;;;7395973;19;20133;-73
2023/01/29 03:07:06;;;;;;;7.60;5.40;;;-4.00;1.00;-3.70;94756.00;;;;7396303;19;20632;-73
2023/01/29 03:09:50;;;;;;;9.77;5.60;;;-4.00;1.00;-3.70;94756.00;;;;7397096;19;20139;-73
2023/01/29 03:12:32;;;;;;;7.33;5.33;;;-4.00;1.00;-3.70;94758.00;;;;7397146;19;20147;-73
2023/01/29 03:15:23;;;;;;;9.87;4.70;;;-4.00;1.00;-3.60;94754.00;;;;7396479;19;20145;-73
2023/01/29 03:18:01;;;;;;;8.70;5.37;;;-4.00;1.00;-3.70;94754.00;;;;7397770;19;20132;-73
2023/01/29 03:20:47;;;;;;;7.40;5.37;;;-4.00;1.00;-3.80;94762.00;;;;7398315;19;20477;-74
2023/01/29 03:32:07;;;;;;;7.63;5.43;;;-4.10;1.00;-3.90;94737.00;;;;7398142;19;20120;-73
2023/01/29 03:34:50;;;;;;;7.03;4.77;;;-4.10;1.00;-3.80;94755.00;;;;7395678;19;20494;-73
2023/01/29 03:37:40;;;;;;;6.07;4.90;;;-4.20;1.00;-3.90;94734.00;;;;7397858;19;20151;-73
2023/01/29 03:40:16;;;;;;;7.37;5.03;;;-4.20;1.00;-3.90;94755.00;;;;7396728;19;20162;-73
2023/01/29 03:43:05;;;;;;;7.10;4.70;;;-4.30;1.00;-4.00;94750.00;;;;7396452;19;20152;-73
2023/01/29 03:45:54;;;;;;;7.73;5.00;;;-4.30;1.00;-4.00;94728.00;;;;7397403;19;20165;-73
2023/01/29 03:48:43;;;;;;;5.87;4.43;;;-4.30;1.00;-3.90;94747.00;;;;7398124;19;20128;-73
2023/01/29 03:51:32;;;;;;;6.57;4.93;;;-4.20;1.00;-4.00;94730.00;;;;7396100;19;20501;-73
2023/01/29 03:54:12;;;;;;;6.07;4.33;;;-4.30;1.00;-4.00;94754.00;;;;7396931;19;20183;-73
2023/01/29 03:57:16;;;;;;;8.07;4.83;;;-4.30;1.00;-3.90;94745.00;;;;7396123;19;20593;-73
2023/01/29 04:00:13;;;;;;;8.13;5.10;;;-4.20;1.00;-4.00;94718.00;;;;7394225;19;20615;-73
2023/01/29 04:03:26;;;;;;;5.77;4.23;;;-4.20;1.00;-4.00;94753.00;;;;7394150;19;20625;-74
2023/01/29 04:06:16;;;;;;;8.57;4.80;;;-4.20;1.00;-4.00;94744.00;;;;7396795;19;20128;-73
2023/01/29 04:09:21;;;;;;;6.53;4.40;;;-4.20;1.00;-3.90;94742.00;;;;7395648;19;20149;-73
2023/01/29 04:12:08;;;;;;;4.90;4.07;;;-4.30;99.90;-3.90;94728.00;;;;7395757;19;20590;-73
2023/01/29 04:14:36;;;;;;;6.23;4.40;;;-4.40;99.90;-4.00;94737.00;;;;7394792;19;20589;-73
2023/01/29 04:17:20;;;;;;;5.73;4.47;;;-4.30;99.90;-4.10;94733.00;;;;7396374;19;20151;-73
2023/01/29 04:19:54;;;;;;;7.53;4.60;;;-4.40;99.90;-4.20;94706.00;;;;7396151;19;20610;-73
2023/01/29 04:22:35;;;;;;;6.33;4.43;;;-4.40;99.90;-4.10;94744.00;;;;7395014;19;20156;-73
2023/01/29 04:25:14;;;;;;;6.90;4.40;;;-4.40;99.90;-4.10;94718.00;;;;7396024;19;20154;-73
2023/01/29 04:28:03;;;;;;;7.33;4.20;;;-4.40;99.90;-4.10;94753.00;;;;7394479;19;20594;-73
2023/01/29 04:30:59;;;;;;;6.30;4.23;;;-4.30;99.90;-4.10;94755.00;;;;7394951;19;20173;-73
2023/01/29 04:34:11;;;;;;;6.30;4.43;;;-4.40;99.90;-4.10;94759.00;;;;7395987;19;20597;-73
2023/01/29 04:37:03;;;;;;;7.70;4.50;;;-4.40;1.00;-4.10;94746.00;;;;7403353;19;20152;-73
2023/01/29 04:39:54;;;;;;;5.43;3.83;;;-4.40;1.00;-4.10;94752.00;;;;7401691;19;20138;-73
2023/01/29 04:43:08;;;;;;;6.67;4.77;;;-4.40;1.00;-4.00;94744.00;;;;7403787;19;20132;-73
2023/01/29 04:46:16;;;;;;;5.63;4.23;;;-4.40;1.00;-4.10;94740.00;;;;7401322;19;20620;-73
2023/01/29 04:49:20;;;;;;;6.30;4.43;;;-4.30;1.00;-4.00;94747.00;;;;7401369;19;20129;-73
2023/01/29 04:52:18;;;;;;;7.50;4.33;;;-4.30;1.00;-4.10;94744.00;;;;7401794;19;20198;-74
2023/01/29 04:55:14;;;;;;;5.80;4.83;;;-4.30;1.00;-4.10;94738.00;;;;7401231;19;20507;-73
2023/01/29 04:58:33;;;;;;;6.17;4.73;;;-4.30;1.00;-4.10;94736.00;;;;7402911;19;20185;-73
2023/01/29 05:01:07;;;;;;;6.23;4.70;;;-4.30;1.00;-3.80;94726.00;;;;7400909;19;20598;-73
2023/01/29 05:03:52;;;;;;;8.53;5.10;;;-4.30;99.90;-4.00;94718.00;;;;7401498;19;20128;-73
2023/01/29 05:06:21;;;;;;;8.87;5.00;;;-4.40;99.90;-4.10;94725.00;;;;7401608;19;20203;-73
2023/01/29 05:08:56;;;;;;;7.50;5.20;;;-4.40;99.90;-4.10;94732.00;;;;7400872;19;20124;-73
2023/01/29 05:11:33;;;;;;;6.07;4.83;;;-4.40;99.90;-4.20;94740.00;;;;7402537;19;20493;-73
2023/01/29 05:14:13;;;;;;;7.93;4.37;;;-4.40;1.00;-4.20;94719.00;;;;7402620;19;20135;-73
2023/01/29 05:16:52;;;;;;;8.20;5.10;;;-4.40;1.00;-4.20;94733.00;;;;7402626;19;20140;-73
2023/01/29 05:19:26;;;;;;;7.77;5.57;;;-4.40;1.00;-4.20;94740.00;;;;7400556;19;20160;-73
2023/01/29 05:21:59;;;;;;;8.97;5.37;;;-4.40;1.00;-4.10;94722.00;;;;7401613;19;20467;-72
2023/01/29 05:24:35;;;;;;;7.77;5.97;;;-4.50;1.00;-4.10;94738.00;;;;7402326;19;20196;-73
2023/01/29 05:29:56;;;;;;;7.47;4.57;;;-4.40;1.00;-4.20;94742.00;;;;7402261;19;20595;-73
2023/01/29 05:32:30;;;;;;;8.67;5.77;;;-4.40;1.00;-4.20;94758.00;;;;7399693;19;20167;-73
2023/01/29 05:34:57;;;;;;;8.27;5.53;;;-4.40;1.00;-4.20;94750.00;;;;7401630;19;20137;-73
2023/01/29 05:37:30;;;;;;;7.97;5.57;;;-4.40;1.00;-4.30;94752.00;;;;7401165;19;20131;-73
2023/01/29 05:39:57;;;;;;;6.47;4.80;;;-4.40;1.00;-4.20;94757.00;;;;7402105;19;20187;-73
2023/01/29 05:42:31;;;;;;;7.50;5.07;;;-4.40;1.00;-4.10;94753.00;;;;7399987;19;20166;-73
2023/01/29 05:44:59;;;;;;;7.37;5.10;;;-4.40;1.00;-4.10;94721.00;;;;7399079;19;20160;-73
2023/01/29 05:47:33;;;;;;;8.83;5.80;;;-4.40;1.00;-4.10;94720.00;;;;7398809;19;20124;-73
2023/01/29 05:50:00;;;;;;;7.73;5.40;;;-4.40;1.00;-4.10;94702.00;;;;7401464;19;20123;-73
2023/01/29 05:52:33;;;;;;;7.30;5.40;;;-4.30;1.00;-4.10;94695.00;;;;7400720;19;20518;-73
2023/01/29 05:55:08;;;;;;;6.83;4.70;;;-4.30;1.00;-3.90;94705.00;;;;7400101;19;20127;-73
2023/01/29 05:57:42;;;;;;;9.67;5.47;;;-4.30;1.00;-4.10;94709.00;;;;7401225;19;20127;-73
2023/01/29 06:00:31;;;;;;;8.87;5.87;;;-4.40;1.00;-4.00;94694.00;;;;7398221;19;21504;-73
2023/01/29 06:03:05;;;;;;;11.20;6.23;;;-4.40;1.00;-4.10;94722.00;;;;7396768;19;20170;-73
2023/01/29 06:05:39;;;;;;;8.87;5.50;;;-4.40;1.00;-4.10;94722.00;;;;7399197;19;20155;-73
2023/01/29 06:08:07;;;;;;;8.33;5.63;;;-4.40;1.00;-4.10;94709.00;;;;7398837;19;20589;-73
2023/01/29 06:10:41;;;;;;;8.27;5.37;;;-4.40;1.00;-4.10;94724.00;;;;7400383;19;20124;-73
2023/01/29 06:13:10;;;;;;;7.27;4.97;;;-4.40;1.00;-4.00;94726.00;;;;7399523;19;20136;-73
2023/01/29 06:15:44;;;;;;;8.63;5.60;;;-4.50;1.00;-4.10;94704.00;;;;7401022;19;20155;-73
2023/01/29 06:18:17;;;;;;;7.63;5.40;;;-4.40;1.00;-4.10;94711.00;;;;7398788;19;20137;-74
2023/01/29 06:20:44;;;;;;;8.20;5.50;;;-4.40;1.00;-4.10;94732.00;;;;7397120;19;20144;-73
2023/01/29 06:23:18;;;;;;;8.33;6.03;;;-4.40;1.00;-4.10;94725.00;;;;7399970;19;20132;-73
2023/01/29 06:25:52;;;;;;;7.40;5.53;;;-4.40;1.00;-4.10;94735.00;;;;7398375;19;20139;-73
2023/01/29 06:28:26;;;;;;;8.57;5.90;;;-4.40;1.00;-4.10;94738.00;;;;7397587;19;20172;-73
2023/01/29 06:30:58;;;;;;;8.80;5.63;;;-4.40;1.00;-4.10;94728.00;;;;7388668;19;20143;-73
2023/01/29 06:33:52;;;;;;;8.13;5.50;;;-4.40;1.00;-4.00;94747.00;;;;7398751;19;20181;-73
2023/01/29 06:36:19;;;;;;;7.30;5.30;;;-4.40;1.00;-4.10;94697.00;;;;7397850;19;20138;-73
2023/01/29 06:38:52;;;;;;;8.80;5.97;;;-4.40;1.00;-4.10;94724.00;;;;7399210;19;20132;-73
2023/01/29 06:41:24;;;;;;;9.60;6.50;;;-4.40;1.00;-4.00;94739.00;;;;7399984;19;20147;-72
2023/01/29 06:43:57;;;;;;;9.03;6.40;;;-4.30;1.00;-4.00;94751.00;;;;7398374;19;20781;-73
2023/01/29 06:46:30;;;;;;;10.53;7.60;;;-4.40;1.00;-4.00;94724.00;;;;7399343;19;20624;-73
2023/01/29 06:49:01;;;;;;;8.17;5.10;;;-4.30;1.00;-4.00;94726.00;;;;7395501;19;20152;-73
2023/01/29 06:51:36;;;;;;;10.17;6.87;;;-4.30;1.00;-4.00;94722.00;;;;7396906;19;20474;-73
2023/01/29 06:54:10;;;;;;;31.10;19.17;;;-4.30;1.00;-4.00;94733.00;;;;7396597;19;20226;-72
2023/01/29 06:56:44;;;;;;;22.47;14.07;;;-4.30;1.00;-4.00;94745.00;;;;7398919;19;20132;-73
2023/01/29 06:59:19;;;;;;;13.43;9.00;;;-4.30;1.00;-4.00;94738.00;;;;7395692;19;20609;-72
2023/01/29 07:01:52;;;;;;;20.63;12.13;;;-4.20;1.00;-3.90;94743.00;;;;7395104;19;20190;-74
2023/01/29 07:04:34;;;;;;;9.50;6.40;;;-4.30;1.00;-3.90;94739.00;;;;7398344;19;20128;-73
2023/01/29 07:07:12;;;;;;;26.63;14.13;;;-4.30;1.00;-3.80;94745.00;;;;7396610;19;20144;-74
2023/01/29 07:09:41;;;;;;;22.10;13.60;;;-4.20;1.00;-3.90;94738.00;;;;7398907;19;20124;-74
2023/01/29 07:12:14;;;;;;;14.87;9.93;;;-4.30;1.00;-3.90;94722.00;;;;7397611;19;20127;-74
2023/01/29 07:14:47;;;;;;;8.60;6.23;;;-4.20;1.00;-3.80;94713.00;;;;7398461;19;20120;-73
2023/01/29 07:17:21;;;;;;;38.40;19.73;;;-4.20;1.00;-3.70;94724.00;;;;7398226;19;20136;-74
2023/01/29 07:19:48;;;;;;;13.67;8.97;;;-4.10;1.00;-3.80;94726.00;;;;7397176;19;20534;-73
2023/01/29 07:22:21;;;;;;;9.50;5.77;;;-4.10;1.00;-3.70;94730.00;;;;7395664;19;20136;-73
2023/01/29 07:24:48;;;;;;;11.63;6.83;;;-4.00;1.00;-3.60;94732.00;;;;7398260;19;20131;-74
2023/01/29 07:27:21;;;;;;;10.10;6.87;;;-4.10;1.00;-3.50;94733.00;;;;7397645;19;20128;-74
2023/01/29 07:29:48;;;;;;;8.23;5.97;;;-4.00;99.90;-3.50;94733.00;;;;7398441;19;20133;-74
2023/01/29 07:32:15;;;;;;;10.30;6.40;;;-3.90;99.90;-3.50;94741.00;;;;7396212;19;20132;-73
2023/01/29 07:34:49;;;;;;;8.90;5.90;;;-4.00;99.90;-3.50;94746.00;;;;7398531;19;20129;-73
2023/01/29 07:37:23;;;;;;;9.20;6.37;;;-3.80;99.90;-3.40;94735.00;;;;7394407;19;20652;-73
2023/01/29 07:39:56;;;;;;;9.77;6.13;;;-3.80;99.90;-3.20;94758.00;;;;7396686;19;20149;-73
2023/01/29 07:42:23;;;;;;;11.07;6.83;;;-3.70;1.00;-3.20;94737.00;;;;7397692;19;20129;-74
2023/01/29 07:44:57;;;;;;;10.67;7.00;;;-3.60;1.00;-3.10;94763.00;;;;7391928;19;20157;-73
2023/01/29 07:47:31;;;;;;;9.33;6.60;;;-3.50;99.90;-2.90;94736.00;;;;7392849;19;20129;-73
2023/01/29 07:49:58;;;;;;;10.03;6.83;;;-3.60;99.90;-2.80;94757.00;;;;7393769;19;20153;-73
2023/01/29 07:52:32;;;;;;;8.27;6.23;;;-3.50;99.90;-2.80;94751.00;;;;7394044;19;20133;-73
2023/01/29 07:55:00;;;;;;;9.97;6.40;;;-3.50;54.20;-2.80;94757.00;;;;7390967;19;20148;-72
2023/01/29 07:57:33;;;;;;;10.20;7.10;;;-3.50;37.40;-3.00;94739.00;;;;7393366;19;20144;-75
2023/01/29 08:00:00;;;;;;;10.77;6.17;;;-3.40;3.30;-2.70;94762.00;;;;7391857;19;20143;-72
2023/01/29 08:02:42;;;;;;;8.77;6.70;;;-3.50;1.00;-2.90;94744.00;;;;7389866;19;20260;-72
2023/01/29 08:05:16;;;;;;;9.93;6.63;;;-3.50;1.00;-2.80;94788.00;;;;7389392;19;20140;-73
2023/01/29 08:07:53;;;;;;;10.57;6.63;;;-3.50;1.00;-3.00;94783.00;;;;7390783;19;20161;-73
2023/01/29 08:10:37;;;;;;;9.50;6.80;;;-3.50;1.00;-3.00;94786.00;;;;7397368;19;20620;-72
2023/01/29 08:13:10;;;;;;;13.80;9.37;;;-3.40;1.00;-2.90;94778.00;;;;7400860;19;20123;-73
2023/01/29 08:15:46;;;;;;;10.77;7.43;;;-3.50;1.00;-3.00;94777.00;;;;7400398;19;20136;-72
2023/01/29 08:18:14;;;;;;;9.30;6.80;;;-3.50;1.00;-3.10;94784.00;;;;7400575;19;20121;-72
2023/01/29 08:20:48;;;;;;;11.57;6.83;;;-3.40;1.00;-2.80;94765.00;;;;7388761;19;20137;-72
2023/01/29 08:23:15;;;;;;;10.23;7.00;;;-3.40;1.00;-2.90;94795.00;;;;7391783;19;20165;-73
2023/01/29 08:25:49;;;;;;;9.83;6.90;;;-3.40;1.00;-2.80;94774.00;;;;7395626;19;20171;-72
2023/01/29 08:28:23;;;;;;;10.90;6.90;;;-3.30;1.00;-2.80;94801.00;;;;7399450;19;20484;-73
2023/01/29 08:30:57;;;;;;;10.30;6.90;;;-3.30;1.00;-2.90;94793.00;;;;7398472;19;20628;-73
2023/01/29 08:33:27;;;;;;;10.27;7.27;;;-3.20;1.00;-2.60;94776.00;;;;7393513;19;20513;-73
2023/01/29 08:36:07;;;;;;;10.43;6.77;;;-3.30;1.00;-2.70;94788.00;;;;7397355;19;20152;-72
2023/01/29 08:38:38;;;;;;;8.70;6.47;;;-3.30;1.00;-2.90;94773.00;;;;7398260;19;20634;-72
2023/01/29 08:41:12;;;;;;;8.63;6.53;;;-3.20;1.00;-2.90;94813.00;;;;7399720;19;20592;-74
2023/01/29 08:43:39;;;;;;;8.83;6.60;;;-3.10;1.00;-2.90;94802.00;;;;7398730;19;20194;-73
2023/01/29 08:46:13;;;;;;;8.93;6.37;;;-3.10;1.00;-2.90;94796.00;;;;7398429;19;20121;-73
2023/01/29 08:48:40;;;;;;;10.73;6.73;;;-3.00;1.00;-2.60;94756.00;;;;7396768;19;20137;-73
2023/01/29 08:51:16;;;;;;;9.33;6.67;;;-3.00;1.00;-2.40;94774.00;;;;7397556;19;20171;-73
2023/01/29 08:53:49;;;;;;;10.50;6.47;;;-3.00;1.00;-2.30;94794.00;;;;7397489;19;20125;-73
2023/01/29 08:56:22;;;;;;;8.23;6.27;;;-2.90;1.00;-2.20;94780.00;;;;7399320;19;20192;-74
2023/01/29 08:58:49;;;;;;;9.23;6.30;;;-2.90;1.00;-2.10;94788.00;;;;7396937;19;20170;-73
2023/01/29 09:01:31;;;;;;;8.83;5.80;;;-2.80;1.00;-2.20;94788.00;;;;7395757;19;20275;-72
2023/01/29 09:04:04;;;;;;;7.80;5.97;;;-2.80;99.90;-2.30;94784.00;;;;7398679;19;20132;-75
2023/01/29 09:06:38;;;;;;;8.63;6.00;;;-2.70;99.90;-2.00;94781.00;;;;7398780;19;20137;-73
2023/01/29 09:09:05;;;;;;;9.40;6.53;;;-2.70;99.90;-1.80;94752.00;;;;7391722;19;20136;-73
2023/01/29 09:11:39;;;;;;;9.27;6.77;;;-2.60;99.90;-1.60;94793.00;;;;7398529;19;20161;-75
2023/01/29 09:14:06;;;;;;;8.57;6.07;;;-2.30;99.90;-1.80;94782.00;;;;7397972;19;20587;-75
2023/01/29 09:16:40;;;;;;;9.60;5.90;;;-2.30;99.90;-2.00;94801.00;;;;7396135;19;20140;-75
2023/01/29 09:19:14;;;;;;;10.33;6.17;;;-2.30;99.90;-1.80;94806.00;;;;7396672;19;20215;-73
2023/01/29 09:21:48;;;;;;;9.23;6.50;;;-2.40;32.30;-1.80;94806.00;;;;7395556;19;20611;-75
2023/01/29 09:24:15;;;;;;;7.77;5.73;;;-2.40;34.90;-1.80;94793.00;;;;7398149;19;20141;-74
2023/01/29 09:26:49;;;;;;;8.57;5.90;;;-2.50;1.00;-2.10;94808.00;;;;7399033;19;20137;-73
2023/01/29 09:29:16;;;;;;;7.97;5.87;;;-2.60;1.00;-2.60;94803.00;;;;7394348;19;20151;-73
2023/01/29 09:31:50;;;;;;;7.50;5.73;;;-2.70;10.80;-2.60;94801.00;;;;7398108;19;20144;-73
2023/01/29 09:34:24;;;;;;;7.97;5.30;;;-2.70;32.50;-2.40;94794.00;;;;7397297;19;20470;-73
2023/01/29 09:36:54;;;;;;;8.97;5.80;;;-2.70;6.40;-2.40;94812.00;;;;7395407;19;20145;-75
2023/01/29 09:39:28;;;;;;;8.40;5.87;;;-2.50;1.50;-1.90;94794.00;;;;7396769;19;20140;-73
2023/01/29 09:42:27;;;;;;;9.03;6.00;;;-2.40;2.00;-1.80;94787.00;;;;7393863;19;20157;-74
2023/01/29 09:45:07;;;;;;;9.13;6.37;;;-2.30;1.00;-1.60;94803.00;;;;7390736;19;20132;-73
2023/01/29 09:47:43;;;;;;;8.20;5.83;;;-2.10;1.00;-1.40;94762.00;;;;7388920;19;20609;-75
2023/01/29 09:50:30;;;;;;;7.93;5.87;;;-1.80;1.00;-1.10;94775.00;;;;7389806;19;20133;-75
2023/01/29 09:53:20;;;;;;;7.77;5.87;;;-1.50;1.00;-0.60;94759.00;;;;7391437;19;20137;-75
2023/01/29 09:56:01;;;;;;;7.47;5.70;;;-1.70;1.00;-0.50;94753.00;;;;7389920;19;20777;-75
2023/01/29 09:58:39;;;;;;;7.57;6.17;;;-1.70;1.00;-0.80;94724.00;;;;7389158;19;20133;-73
2023/01/29 10:01:35;;;;;;;8.37;5.77;;;-1.80;1.00;-0.70;94740.00;;;;7387587;19;20184;-75
2023/01/29 10:05:00;;;;;;;9.13;6.70;;;-1.70;1.00;-0.80;94738.00;;;;7390159;19;20215;-75
2023/01/29 10:07:42;;;;;;;7.07;5.40;;;-1.60;99.90;-0.70;94730.00;;;;7383116;19;20153;-75
2023/01/29 10:10:22;;;;;;;8.50;6.50;;;-1.50;1.00;-1.00;94716.00;;;;7384690;19;20155;-72
2023/01/29 10:13:19;;;;;;;10.27;6.67;;;-1.50;1.40;-0.70;94722.00;;;;7389537;19;20196;-73
2023/01/29 10:16:41;;;;;;;8.43;6.33;;;-1.60;99.90;-0.90;94732.00;;;;7390465;19;20625;-73
2023/01/29 10:19:29;;;;;;;8.67;6.57;;;-1.40;99.90;-0.80;94740.00;;;;7386616;19;20196;-75
2023/01/29 10:23:07;;;;;;;11.30;7.17;;;-1.60;99.90;-0.50;94716.00;;;;7387410;19;20187;-75
2023/01/29 10:25:40;;;;;;;10.83;6.73;;;-1.60;1.00;-0.60;94732.00;;;;7386704;19;20817;-76
2023/01/29 10:28:46;;;;;;;10.87;7.83;;;-1.50;99.90;-0.60;94741.00;;;;7388637;19;20823;-75
2023/01/29 10:31:26;;;;;;;10.03;6.73;;;-1.50;99.90;-0.80;94729.00;;;;7386838;19;20229;-75
2023/01/29 10:34:30;;;;;;;11.40;7.53;;;-1.50;99.90;-0.90;94743.00;;;;7388942;19;20599;-75
2023/01/29 10:37:23;;;;;;;11.53;7.80;;;-1.60;1.00;-1.30;94764.00;;;;7387904;19;20591;-75
2023/01/29 10:39:50;;;;;;;9.90;7.53;;;-1.50;99.90;-1.30;94769.00;;;;7390903;19;20140;-76
2023/01/29 10:43:04;;;;;;;10.80;7.77;;;-1.20;99.90;-0.40;94758.00;;;;7390094;19;20121;-75
2023/01/29 10:45:54;;;;;;;9.33;7.30;;;-1.00;99.90;-0.50;94768.00;;;;7389696;19;20137;-76
2023/01/29 10:49:24;;;;;;;10.50;7.87;;;-1.00;99.90;-0.50;94758.00;;;;7383931;19;20714;-75
2023/01/29 10:52:21;;;;;;;9.93;7.97;;;-1.00;96.80;-0.80;94761.00;;;;7387581;19;20156;-76
2023/01/29 10:55:28;;;;;;;11.30;7.40;;;-1.00;99.90;-1.00;94772.00;;;;7386842;19;20156;-73
2023/01/29 10:58:17;;;;;;;9.17;7.23;;;-0.80;99.90;-0.20;94770.00;;;;7387725;19;20590;-76
2023/01/29 11:00:45;;;;;;;9.30;7.10;;;-0.80;15.00;-0.60;94775.00;;;;7384922;19;20208;-74
2023/01/29 11:03:24;;;;;;;10.13;7.70;;;-0.80;72.40;-0.80;94771.00;;;;7387487;19;20639;-76
2023/01/29 11:06:22;;;;;;;12.47;7.30;;;-0.60;16.10;-0.60;94774.00;;;;7387360;19;20173;-75
2023/01/29 11:09:14;;;;;;;8.23;6.60;;;-0.60;39.60;-0.70;94764.00;;;;7385466;19;20137;-75
2023/01/29 11:11:57;;;;;;;8.90;7.10;;;-0.50;1.00;-1.00;94751.00;;;;7386555;19;20148;-75
2023/01/29 11:15:14;;;;;;;9.97;7.37;;;-0.40;1.00;-1.30;94768.00;;;;7388427;19;20136;-75
2023/01/29 11:18:14;;;;;;;10.30;7.43;;;-0.50;1.00;-0.80;94744.00;;;;7390139;19;20129;-75
2023/01/29 11:21:01;;;;;;;8.33;6.57;;;-0.50;1.00;-0.30;94770.00;;;;7388601;19;20120;-75
2023/01/29 11:23:35;;;;;;;8.60;6.47;;;-0.40;1.00;-0.30;94762.00;;;;7388211;19;20132;-75
2023/01/29 11:26:03;;;;;;;9.27;7.13;;;-0.30;1.00;-0.10;94746.00;;;;7383874;19;20137;-75
2023/01/29 11:28:47;;;;;;;10.10;7.70;;;-0.20;1.00;0.00;94740.00;;;;7388478;19;20192;-75
2023/01/29 11:31:33;;;;;;;20.53;12.43;;;-0.10;1.00;0.00;94727.00;;;;7386456;19;20609;-75
2023/01/29 11:34:21;;;;;;;11.57;8.07;;;0.00;1.00;-0.50;94709.00;;;;7389717;19;20141;-75
2023/01/29 11:37:17;;;;;;;7.53;6.27;;;0.00;1.00;0.00;94719.00;;;;7391111;19;20607;-76
2023/01/29 11:39:51;;;;;;;13.70;9.50;;;-0.20;1.00;0.30;94729.00;;;;7388834;19;20163;-76
2023/01/29 11:42:30;;;;;;;8.97;7.07;;;-0.40;1.00;0.20;94740.00;;;;7389072;19;20132;-76
2023/01/29 11:45:32;;;;;;;10.73;7.70;;;-0.50;1.00;0.30;94727.00;;;;7391901;19;20156;-76
2023/01/29 11:48:00;;;;;;;9.27;6.77;;;-0.50;1.00;0.00;94742.00;;;;7398919;19;20509;-76
2023/01/29 11:50:34;;;;;;;8.33;6.40;;;-0.70;1.00;-0.40;94732.00;;;;7398697;19;20128;-76
2023/01/29 11:53:42;;;;;;;7.60;5.83;;;-0.60;1.00;-1.10;94726.00;;;;7396642;19;20160;-76
2023/01/29 11:56:30;;;;;;;7.07;5.87;;;-0.70;1.00;-1.20;94704.00;;;;7397614;19;20141;-76
2023/01/29 11:58:58;;;;;;;7.33;6.30;;;-0.70;1.00;-0.80;94702.00;;;;7396894;19;20145;-76
2023/01/29 12:01:40;;;;;;;8.07;6.00;;;-0.60;1.00;-0.40;94704.00;;;;7396291;19;20662;-76
2023/01/29 12:04:30;;;;;;;8.37;6.43;;;-0.50;1.00;0.20;94685.00;;;;7395462;19;20141;-75
2023/01/29 12:07:14;;;;;;;8.47;6.33;;;-0.40;1.00;-0.20;94711.00;;;;7394083;19;20133;-74
2023/01/29 12:09:56;;;;;;;8.77;6.97;;;-0.30;1.00;0.20;94691.00;;;;7393444;19;20149;-72
2023/01/29 12:12:41;;;;;;;15.57;11.40;;;-0.20;1.00;0.10;94705.00;;;;7399181;19;20132;-76
2023/01/29 12:15:20;;;;;;;9.13;6.47;;;-0.30;1.00;0.30;94688.00;;;;7398180;19;20144;-76
2023/01/29 12:18:30;;;;;;;7.17;5.77;;;-0.30;1.00;0.50;94678.00;;;;7397141;19;20129;-76
2023/01/29 12:21:21;;;;;;;8.30;5.83;;;-0.10;1.00;0.10;94666.00;;;;7396050;19;20164;-75